createdAt,value
2023-01-20T00:00:27.322Z,3.42
2023-01-20T00:03:12.444Z,3.41
2023-01-20T00:05:58.001Z,3.43
2023-01-20T00:08:43.630Z,3.46
2023-01-20T00:11:29.595Z,3.47
2023-01-20T00:14:15.077Z,3.49
2023-01-20T00:17:00.297Z,3.45
2023-01-20T00:19:45.672Z,3.36
2023-01-20T00:22:31.217Z,3.30
2023-01-20T00:25:16.828Z,3.27
2023-01-20T00:28:01.957Z,3.21
2023-01-20T00:30:47.097Z,3.18
2023-01-20T00:33:32.330Z,3.21
2023-01-20T00:36:20.129Z,3.27
2023-01-20T00:39:05.836Z,3.33
2023-01-20T00:41:51.129Z,3.35
2023-01-20T00:44:36.645Z,3.32
2023-01-20T00:47:21.850Z,3.35
2023-01-20T00:50:07.311Z,3.34
2023-01-20T00:52:52.616Z,3.35
2023-01-20T00:55:38.344Z,3.31
2023-01-20T00:58:23.391Z,3.35
2023-01-20T01:01:08.774Z,3.39
2023-01-20T01:03:54.583Z,3.41
2023-01-20T01:06:40.068Z,3.45
2023-01-20T01:09:25.356Z,3.50
2023-01-20T01:12:10.459Z,3.53
2023-01-20T01:14:55.928Z,3.51
2023-01-20T01:17:44.039Z,3.43
2023-01-20T01:20:29.901Z,3.31
2023-01-20T01:23:15.389Z,3.23
2023-01-20T01:26:00.730Z,3.17
2023-01-20T01:28:50.035Z,3.16
2023-01-20T01:31:35.560Z,3.10
2023-01-20T01:34:20.631Z,3.04
2023-01-20T01:37:05.768Z,3.03
2023-01-20T01:39:51.241Z,3.05
2023-01-20T01:42:36.824Z,3.11
2023-01-20T01:45:25.537Z,3.14
2023-01-20T01:48:10.759Z,3.10
2023-01-20T01:51:07.155Z,3.11
2023-01-20T01:54:01.657Z,3.18
2023-01-20T01:56:49.827Z,3.24
2023-01-20T01:59:36.629Z,3.24
2023-01-20T02:02:22.125Z,3.27
2023-01-20T02:05:10.442Z,3.22
2023-01-20T02:07:57.780Z,3.15
2023-01-20T02:10:43.512Z,3.08
2023-01-20T02:13:28.944Z,3.05
2023-01-20T02:16:35.452Z,3.03
2023-01-20T02:19:31.973Z,3.00
2023-01-20T02:22:32.801Z,3.02
2023-01-20T02:25:27.433Z,3.01
2023-01-20T02:28:34.171Z,3.07
2023-01-20T02:31:55.147Z,2.92
2023-01-20T02:35:02.988Z,2.88
2023-01-20T02:38:05.751Z,2.82
2023-01-20T02:41:10.954Z,2.90
2023-01-20T02:44:23.520Z,2.95
2023-01-20T02:47:25.844Z,3.00
2023-01-20T02:50:10.989Z,2.98
2023-01-20T02:52:59.593Z,3.00
2023-01-20T02:55:50.668Z,3.06
2023-01-20T02:58:46.137Z,3.09
2023-01-20T03:01:36.847Z,3.07
2023-01-20T03:04:27.561Z,3.07
2023-01-20T03:07:14.957Z,3.06
2023-01-20T03:10:03.639Z,3.03
2023-01-20T03:13:05.598Z,3.01
2023-01-20T03:15:58.116Z,2.95
2023-01-20T03:18:43.608Z,2.90
2023-01-20T03:21:29.538Z,2.81
2023-01-20T03:24:14.637Z,2.76
2023-01-20T03:27:00.305Z,2.80
2023-01-20T03:29:45.797Z,2.87
2023-01-20T03:32:32.101Z,2.85
2023-01-20T03:35:18.461Z,2.79
2023-01-20T03:38:03.980Z,2.78
2023-01-20T03:41:24.688Z,2.71
2023-01-20T03:44:16.935Z,2.60
2023-01-20T03:47:23.061Z,2.62
2023-01-20T03:50:17.880Z,2.67
2023-01-20T03:53:18.493Z,2.72
2023-01-20T03:56:06.657Z,2.80
2023-01-20T03:58:54.646Z,2.84
2023-01-20T04:01:43.587Z,2.86
2023-01-20T04:04:29.996Z,2.73
2023-01-20T04:07:21.748Z,2.63
2023-01-20T04:10:13.278Z,2.64
2023-01-20T04:12:58.409Z,2.69
2023-01-20T04:15:46.028Z,2.76
2023-01-20T04:18:31.042Z,2.82
2023-01-20T04:21:43.563Z,2.94
2023-01-20T04:24:41.091Z,2.98
2023-01-20T04:27:26.246Z,2.97
2023-01-20T04:30:13.699Z,2.97
2023-01-20T04:32:59.036Z,2.93
2023-01-20T04:35:44.346Z,2.97
2023-01-20T04:38:29.709Z,3.01
2023-01-20T04:41:15.041Z,3.01
2023-01-20T04:44:00.538Z,3.02
2023-01-20T04:46:47.266Z,3.03
2023-01-20T04:49:34.301Z,3.01
2023-01-20T04:52:19.557Z,3.01
2023-01-20T04:55:04.820Z,3.01
2023-01-20T04:57:50.437Z,3.03
2023-01-20T05:00:35.802Z,2.98
2023-01-20T05:03:20.984Z,2.91
2023-01-20T05:06:06.646Z,2.85
2023-01-20T05:08:52.199Z,2.85
2023-01-20T05:11:37.529Z,2.90
2023-01-20T05:14:22.683Z,2.83
2023-01-20T05:17:08.167Z,2.78
2023-01-20T05:19:53.611Z,2.76
2023-01-20T05:22:38.783Z,2.73
2023-01-20T05:25:24.296Z,2.72
2023-01-20T05:28:09.385Z,2.71
2023-01-20T05:30:54.781Z,2.68
2023-01-20T05:33:40.129Z,2.69
2023-01-20T05:36:25.429Z,2.67
2023-01-20T05:39:10.534Z,2.64
2023-01-20T05:41:55.916Z,2.64
2023-01-20T05:44:41.337Z,2.58
2023-01-20T05:47:26.353Z,2.52
2023-01-20T05:50:12.408Z,2.53
2023-01-20T05:52:57.828Z,2.46
2023-01-20T05:55:43.476Z,2.42
2023-01-20T05:58:30.428Z,2.41
2023-01-20T06:01:15.925Z,2.42
2023-01-20T06:04:01.398Z,2.39
2023-01-20T06:06:46.461Z,2.35
2023-01-20T06:09:31.834Z,2.32
2023-01-20T06:12:17.309Z,2.33
2023-01-20T06:15:03.294Z,2.34
2023-01-20T06:17:48.416Z,2.29
2023-01-20T06:20:34.528Z,2.25
2023-01-20T06:23:20.741Z,2.22
2023-01-20T06:26:12.323Z,2.21
2023-01-20T06:29:01.464Z,2.18
2023-01-20T06:31:47.844Z,2.20
2023-01-20T06:34:33.129Z,2.26
2023-01-20T06:37:19.134Z,2.28
2023-01-20T06:40:04.526Z,2.23
2023-01-20T06:42:49.859Z,2.18
2023-01-20T06:45:35.300Z,2.24
2023-01-20T06:48:20.426Z,2.20
2023-01-20T06:51:18.544Z,2.19
2023-01-20T06:54:04.103Z,2.11
2023-01-20T06:56:49.738Z,2.01
2023-01-20T06:59:35.137Z,1.93
2023-01-20T07:02:20.449Z,1.96
2023-01-20T07:05:08.080Z,2.05
2023-01-20T07:07:53.139Z,2.14
2023-01-20T07:10:38.690Z,2.18
2023-01-20T07:13:23.838Z,2.21
2023-01-20T07:16:12.040Z,2.24
2023-01-20T07:18:58.546Z,2.29
2023-01-20T07:21:43.586Z,2.33
2023-01-20T07:24:29.109Z,2.24
2023-01-20T07:27:15.066Z,2.25
2023-01-20T07:30:00.200Z,2.23
2023-01-20T07:32:45.971Z,2.15
2023-01-20T07:35:31.534Z,2.17
2023-01-20T07:38:16.711Z,2.17
2023-01-20T07:41:05.188Z,2.17
2023-01-20T07:43:52.399Z,2.13
2023-01-20T07:46:37.767Z,2.04
2023-01-20T07:49:23.360Z,2.01
2023-01-20T07:52:08.541Z,2.04
2023-01-20T07:54:53.820Z,1.93
2023-01-20T07:57:39.759Z,1.95
2023-01-20T08:00:25.250Z,2.05
2023-01-20T08:03:10.398Z,2.09
2023-01-20T08:05:55.858Z,2.13
2023-01-20T08:08:41.409Z,2.04
2023-01-20T08:11:26.709Z,2.05
2023-01-20T08:14:12.289Z,2.12
2023-01-20T08:16:57.594Z,2.16
2023-01-20T08:19:42.705Z,2.23
2023-01-20T08:22:28.068Z,2.27
2023-01-20T08:25:13.690Z,2.33
2023-01-20T08:27:59.142Z,2.31
2023-01-20T08:30:44.557Z,2.23
2023-01-20T08:33:29.909Z,2.32
2023-01-20T08:36:19.968Z,2.38
2023-01-20T08:39:07.497Z,2.32
2023-01-20T08:41:52.765Z,2.27
2023-01-20T08:44:38.108Z,2.29
2023-01-20T08:47:23.858Z,2.41
2023-01-20T08:50:10.233Z,2.50
2023-01-20T08:52:55.471Z,2.52
2023-01-20T08:55:40.851Z,2.60
2023-01-20T08:58:27.587Z,2.68
2023-01-20T09:01:15.997Z,2.74
2023-01-20T09:04:06.849Z,2.72
2023-01-20T09:06:53.776Z,2.62
2023-01-20T09:09:39.279Z,2.42
2023-01-20T09:12:24.407Z,2.23
2023-01-20T09:15:10.575Z,2.12
2023-01-20T09:17:56.093Z,2.09
2023-01-20T09:20:41.257Z,2.03
2023-01-20T09:23:26.739Z,2.03
2023-01-20T09:26:13.287Z,2.03
2023-01-20T09:29:09.535Z,2.03
2023-01-20T09:31:59.093Z,1.95
2023-01-20T09:34:44.526Z,1.95
2023-01-20T09:37:48.503Z,2.07
2023-01-20T09:41:07.161Z,2.25
2023-01-20T09:44:07.380Z,2.41
2023-01-20T09:47:21.609Z,2.56
2023-01-20T09:50:49.967Z,2.73
2023-01-20T09:54:00.919Z,2.62
2023-01-20T09:56:49.476Z,2.55
2023-01-20T09:59:40.076Z,2.33
2023-01-20T10:02:30.707Z,2.31
2023-01-20T10:05:21.124Z,2.29
2023-01-20T10:08:29.265Z,2.30
2023-01-20T10:11:18.940Z,2.45
2023-01-20T10:14:07.154Z,2.54
2023-01-20T10:17:09.174Z,2.60
2023-01-20T10:19:59.615Z,2.62
2023-01-20T10:22:52.406Z,2.46
2023-01-20T10:26:01.389Z,2.43
2023-01-20T10:28:57.712Z,2.50
2023-01-20T10:31:59.780Z,2.64
2023-01-20T10:34:56.316Z,2.76
2023-01-20T10:37:42.460Z,2.86
2023-01-20T10:40:46.364Z,3.01
2023-01-20T10:43:31.738Z,3.11
2023-01-20T10:46:33.699Z,3.06
2023-01-20T10:49:37.175Z,2.95
2023-01-20T10:52:34.891Z,2.77
2023-01-20T10:55:46.428Z,2.72
2023-01-20T10:58:35.947Z,2.66
2023-01-20T11:01:21.536Z,2.64
2023-01-20T11:04:17.019Z,2.74
2023-01-20T11:07:03.642Z,2.69
2023-01-20T11:09:49.236Z,2.71
2023-01-20T11:12:39.849Z,2.80
2023-01-20T11:15:34.018Z,2.89
2023-01-20T11:18:23.029Z,2.83
2023-01-20T11:21:12.596Z,2.82
2023-01-20T11:23:59.261Z,2.79
2023-01-20T11:26:44.711Z,2.80
2023-01-20T11:29:31.893Z,2.82
2023-01-20T11:32:27.942Z,2.81
2023-01-20T11:35:25.476Z,2.74
2023-01-20T11:38:25.401Z,2.70
2023-01-20T11:41:24.646Z,2.71
2023-01-20T11:44:20.467Z,2.79
2023-01-20T11:47:37.175Z,2.93
2023-01-20T11:50:31.463Z,3.08
2023-01-20T11:53:20.023Z,3.18
2023-01-20T11:56:18.125Z,3.18
2023-01-20T11:59:04.322Z,3.26
2023-01-20T12:02:15.047Z,3.23
2023-01-20T12:05:06.634Z,3.24
2023-01-20T12:07:52.605Z,3.31
2023-01-20T12:10:39.455Z,3.30
2023-01-20T12:14:16.939Z,3.13
2023-01-20T12:17:33.675Z,3.07
2023-01-20T12:20:54.808Z,3.05
2023-01-20T12:23:47.660Z,2.96
2023-01-20T12:26:34.933Z,2.89
2023-01-20T12:29:36.571Z,2.82
2023-01-20T12:32:22.100Z,2.85
2023-01-20T12:35:14.545Z,2.88
2023-01-20T12:38:08.194Z,2.90
2023-01-20T12:40:56.424Z,3.00
2023-01-20T12:43:52.573Z,3.00
2023-01-20T12:46:49.336Z,2.99
2023-01-20T12:49:46.735Z,3.07
2023-01-20T12:52:58.852Z,3.27
2023-01-20T12:55:48.717Z,3.41
2023-01-20T12:59:01.019Z,3.42
2023-01-20T13:01:54.320Z,3.44
2023-01-20T13:05:07.108Z,3.40
2023-01-20T13:08:23.195Z,3.49
2023-01-20T13:11:17.922Z,3.54
2023-01-20T13:14:17.649Z,3.57
2023-01-20T13:17:44.851Z,3.64
2023-01-20T13:20:30.783Z,3.66
2023-01-20T13:23:36.860Z,3.77
2023-01-20T13:26:22.267Z,3.85
2023-01-20T13:29:21.669Z,3.93
2023-01-20T13:32:31.558Z,4.03
2023-01-20T13:35:27.460Z,4.14
2023-01-20T13:38:24.609Z,4.18
2023-01-20T13:41:10.799Z,4.18
2023-01-20T13:43:56.388Z,4.17
2023-01-20T13:46:45.593Z,4.15
2023-01-20T13:49:48.728Z,4.20
2023-01-20T13:52:52.790Z,4.25
2023-01-20T13:55:40.977Z,4.15
2023-01-20T13:58:34.508Z,4.14
2023-01-20T14:01:21.167Z,4.13
2023-01-20T14:04:24.250Z,4.07
2023-01-20T14:07:25.492Z,4.10
2023-01-20T14:10:12.694Z,4.00
2023-01-20T14:13:01.581Z,3.85
2023-01-20T14:15:50.833Z,3.77
2023-01-20T14:18:36.881Z,3.73
2023-01-20T14:21:25.929Z,3.72
2023-01-20T14:24:26.599Z,3.59
2023-01-20T14:27:19.998Z,3.60
2023-01-20T14:30:27.344Z,3.57
2023-01-20T14:33:16.255Z,3.65
2023-01-20T14:36:06.520Z,3.73
2023-01-20T14:38:58.227Z,3.78
2023-01-20T14:41:48.677Z,3.73
2023-01-20T14:44:33.968Z,3.71
2023-01-20T14:47:21.479Z,3.73
2023-01-20T14:50:16.080Z,3.75
2023-01-20T14:53:01.375Z,3.72
2023-01-20T14:56:01.181Z,3.56
2023-01-20T14:58:47.736Z,3.37
2023-01-20T15:01:33.444Z,3.19
2023-01-20T15:04:19.229Z,3.23
2023-01-20T15:07:05.418Z,3.34
2023-01-20T15:10:09.254Z,3.37
2023-01-20T15:12:55.230Z,3.32
2023-01-20T15:15:43.411Z,3.36
2023-01-20T15:18:28.383Z,3.35
2023-01-20T15:21:27.817Z,3.32
2023-01-20T15:24:19.350Z,3.25
2023-01-20T15:27:20.535Z,3.28
2023-01-20T15:30:24.035Z,3.28
2023-01-20T15:33:09.476Z,3.19
2023-01-20T15:35:57.485Z,3.09
2023-01-20T15:38:43.610Z,3.11
2023-01-20T15:41:29.183Z,3.13
2023-01-20T15:44:17.293Z,3.17
2023-01-20T15:47:02.568Z,3.22
2023-01-20T15:49:47.998Z,3.17
2023-01-20T15:52:39.257Z,3.07
2023-01-20T15:55:24.591Z,2.96
2023-01-20T15:58:25.684Z,2.86
2023-01-20T16:01:14.800Z,2.73
2023-01-20T16:03:59.951Z,2.67
2023-01-20T16:06:45.626Z,2.61
2023-01-20T16:09:37.429Z,2.59
2023-01-20T16:12:23.019Z,2.55
2023-01-20T16:15:14.488Z,2.50
2023-01-20T16:18:00.166Z,2.50
2023-01-20T16:20:48.667Z,2.55
2023-01-20T16:23:37.323Z,2.55
2023-01-20T16:26:25.515Z,2.56
2023-01-20T16:29:13.114Z,2.52
2023-01-20T16:31:58.514Z,2.53
2023-01-20T16:34:44.152Z,2.57
2023-01-20T16:37:29.803Z,2.63
2023-01-20T16:40:17.669Z,2.68
2023-01-20T16:43:03.386Z,2.66
2023-01-20T16:45:54.319Z,2.65
2023-01-20T16:48:39.437Z,2.50
2023-01-20T16:51:26.687Z,2.40
2023-01-20T16:54:12.139Z,2.29
2023-01-20T16:56:59.934Z,2.23
2023-01-20T16:59:46.272Z,2.25
2023-01-20T17:02:34.121Z,2.29
2023-01-20T17:05:22.609Z,2.37
2023-01-20T17:08:09.289Z,2.35
2023-01-20T17:10:54.611Z,2.29
2023-01-20T17:13:40.357Z,2.26
2023-01-20T17:16:26.239Z,2.24
2023-01-20T17:19:12.960Z,2.26
2023-01-20T17:21:58.399Z,2.22
2023-01-20T17:24:43.678Z,2.11
2023-01-20T17:27:29.152Z,2.05
2023-01-20T17:30:15.440Z,2.06
2023-01-20T17:33:01.110Z,2.07
2023-01-20T17:35:55.598Z,2.09
2023-01-20T17:38:41.107Z,2.12
2023-01-20T17:41:26.161Z,2.17
2023-01-20T17:44:12.862Z,2.19
2023-01-20T17:46:58.164Z,2.21
2023-01-20T17:49:43.220Z,2.28
2023-01-20T17:52:28.866Z,2.32
2023-01-20T17:55:14.481Z,2.34
2023-01-20T17:58:00.107Z,2.42
2023-01-20T18:00:45.129Z,2.44
2023-01-20T18:03:30.507Z,2.40
2023-01-20T18:06:17.650Z,2.25
2023-01-20T18:09:04.099Z,2.22
2023-01-20T18:11:49.324Z,2.21
2023-01-20T18:14:34.779Z,2.15
2023-01-20T18:17:21.127Z,2.11
2023-01-20T18:20:07.618Z,2.05
2023-01-20T18:22:52.792Z,2.02
2023-01-20T18:25:38.305Z,1.96
2023-01-20T18:28:23.871Z,1.91
2023-01-20T18:31:15.520Z,1.81
2023-01-20T18:34:04.958Z,1.71
2023-01-20T18:36:50.115Z,1.75
2023-01-20T18:39:36.725Z,1.78
2023-01-20T18:42:21.989Z,1.80
2023-01-20T18:45:08.955Z,1.76
2023-01-20T18:47:54.445Z,1.68
2023-01-20T18:50:40.185Z,1.67
2023-01-20T18:53:26.822Z,1.57
2023-01-20T18:56:14.700Z,1.58
2023-01-20T18:59:01.570Z,1.58
2023-01-20T19:01:47.438Z,1.60
2023-01-20T19:04:33.559Z,1.61
2023-01-20T19:07:18.752Z,1.67
2023-01-20T19:10:04.250Z,1.64
2023-01-20T19:12:51.738Z,1.65
2023-01-20T19:15:37.135Z,1.61
2023-01-20T19:18:22.501Z,1.48
2023-01-20T19:21:10.440Z,1.40
2023-01-20T19:23:59.768Z,1.43
2023-01-20T19:26:46.976Z,1.43
2023-01-20T19:29:32.388Z,1.49
2023-01-20T19:32:19.772Z,1.44
2023-01-20T19:35:05.342Z,1.45
2023-01-20T19:37:50.845Z,1.53
2023-01-20T19:40:36.135Z,1.50
2023-01-20T19:43:21.687Z,1.43
2023-01-20T19:46:15.465Z,1.39
2023-01-20T19:49:02.165Z,1.31
2023-01-20T19:51:47.326Z,1.31
2023-01-20T19:54:33.501Z,1.29
2023-01-20T19:57:19.219Z,1.26
2023-01-20T20:00:05.466Z,1.25
2023-01-20T20:02:57.027Z,1.27
2023-01-20T20:05:43.967Z,1.33
2023-01-20T20:08:29.206Z,1.39
2023-01-20T20:11:14.614Z,1.46
2023-01-20T20:14:02.745Z,1.48
2023-01-20T20:16:48.857Z,1.40
2023-01-20T20:19:34.916Z,1.33
2023-01-20T20:22:20.073Z,1.26
2023-01-20T20:25:09.893Z,1.24
2023-01-20T20:27:57.581Z,1.23
2023-01-20T20:30:43.262Z,1.19
2023-01-20T20:33:32.612Z,1.14
2023-01-20T20:36:18.401Z,1.09
2023-01-20T20:39:04.870Z,1.08
2023-01-20T20:41:50.144Z,1.10
2023-01-20T20:44:35.335Z,1.02
2023-01-20T20:47:20.709Z,0.96
2023-01-20T20:50:07.911Z,0.89
2023-01-20T20:52:53.402Z,0.85
2023-01-20T20:55:40.631Z,0.68
2023-01-20T20:58:26.161Z,0.59
2023-01-20T21:01:15.629Z,0.40
2023-01-20T21:04:01.921Z,0.35
2023-01-20T21:06:47.236Z,0.41
2023-01-20T21:09:32.344Z,0.41
2023-01-20T21:12:17.994Z,0.42
2023-01-20T21:15:03.969Z,0.41
2023-01-20T21:17:49.284Z,0.42
2023-01-20T21:20:35.206Z,0.30
2023-01-20T21:23:20.457Z,0.21
2023-01-20T21:26:09.316Z,0.22
2023-01-20T21:28:54.701Z,0.30
2023-01-20T21:31:39.740Z,0.36
2023-01-20T21:34:24.823Z,0.36
2023-01-20T21:37:10.341Z,0.40
2023-01-20T21:39:55.742Z,0.44
2023-01-20T21:42:41.127Z,0.56
2023-01-20T21:45:26.528Z,0.61
2023-01-20T21:48:32.144Z,0.45
2023-01-20T21:51:36.147Z,0.39
2023-01-20T21:54:21.230Z,0.37
2023-01-20T21:57:06.546Z,0.35
2023-01-20T21:59:52.303Z,0.29
2023-01-20T22:02:37.782Z,0.31
2023-01-20T22:05:22.901Z,0.25
2023-01-20T22:08:08.295Z,0.18
2023-01-20T22:10:58.365Z,0.22
2023-01-20T22:13:43.983Z,0.28
2023-01-20T22:16:29.553Z,0.26
2023-01-20T22:19:14.901Z,0.29
2023-01-20T22:22:00.821Z,0.35
2023-01-20T22:24:46.220Z,0.35
2023-01-20T22:27:31.757Z,0.27
2023-01-20T22:30:17.689Z,0.23
2023-01-20T22:33:03.471Z,0.31
2023-01-20T22:35:48.792Z,0.30
2023-01-20T22:38:34.157Z,0.20
2023-01-20T22:41:20.561Z,0.27
2023-01-20T22:44:05.923Z,0.25
2023-01-20T22:46:51.238Z,0.33
2023-01-20T22:49:36.640Z,0.16
2023-01-20T22:52:21.806Z,0.04
2023-01-20T22:55:07.481Z,0.06
2023-01-20T22:57:52.856Z,0.00
2023-01-20T23:00:38.289Z,-0.06
2023-01-20T23:03:23.534Z,-0.06
2023-01-20T23:06:09.954Z,-0.05
2023-01-20T23:08:55.604Z,-0.03
2023-01-20T23:11:41.586Z,-0.05
2023-01-20T23:14:56.092Z,-0.13
2023-01-20T23:17:41.562Z,-0.21
2023-01-20T23:20:26.876Z,-0.26
2023-01-20T23:23:12.009Z,-0.27
2023-01-20T23:26:06.083Z,-0.28
2023-01-20T23:28:52.751Z,-0.32
2023-01-20T23:31:38.129Z,-0.35
2023-01-20T23:34:23.575Z,-0.26
2023-01-20T23:37:08.740Z,-0.16
2023-01-20T23:39:54.302Z,-0.11
2023-01-20T23:42:39.443Z,-0.15
2023-01-20T23:45:24.853Z,-0.25
2023-01-20T23:48:10.456Z,-0.30
2023-01-20T23:50:59.602Z,-0.28
2023-01-20T23:53:44.873Z,-0.22
2023-01-20T23:56:30.434Z,0.00
2023-01-20T23:59:15.557Z,-0.01
